createdAt,value
2024-01-30T00:00:09.270Z,102030.38
2024-01-30T00:02:57.920Z,102034.48
2024-01-30T00:05:26.507Z,102035.16
2024-01-30T00:07:54.851Z,102033.64
2024-01-30T00:10:23.274Z,102030.08
2024-01-30T00:12:51.748Z,102025.88
2024-01-30T00:15:20.465Z,102026.79
2024-01-30T00:17:49.061Z,102025.77
2024-01-30T00:20:17.679Z,102028.69
2024-01-30T00:22:46.410Z,102031.77
2024-01-30T00:25:14.905Z,102035.70
2024-01-30T00:27:43.693Z,102034.13
2024-01-30T00:30:13.166Z,102031.31
2024-01-30T00:32:41.901Z,102030.04
2024-01-30T00:35:11.673Z,102025.84
2024-01-30T00:37:40.000Z,102023.63
2024-01-30T00:40:09.070Z,102019.80
2024-01-30T00:42:37.524Z,102023.43
2024-01-30T00:45:06.290Z,102024.49
2024-01-30T00:47:34.824Z,102024.30
2024-01-30T00:50:03.594Z,102022.23
2024-01-30T00:52:32.122Z,102020.06
2024-01-30T00:55:01.133Z,102022.42
2024-01-30T00:57:29.759Z,102024.09
2024-01-30T00:59:58.663Z,102019.38
2024-01-30T01:02:27.129Z,102017.09
2024-01-30T01:04:55.685Z,102017.38
2024-01-30T01:07:24.645Z,102015.62
2024-01-30T01:09:53.112Z,102015.20
2024-01-30T01:12:21.581Z,102011.19
2024-01-30T01:14:50.314Z,102006.48
2024-01-30T01:17:19.802Z,102007.80
2024-01-30T01:19:48.389Z,102011.19
2024-01-30T01:22:18.585Z,102009.39
2024-01-30T01:24:47.115Z,102010.88
2024-01-30T01:27:15.524Z,102011.71
2024-01-30T01:29:44.344Z,102008.20
2024-01-30T01:32:12.780Z,102007.98
2024-01-30T01:34:41.284Z,102008.42
2024-01-30T01:37:09.876Z,102002.36
2024-01-30T01:39:38.563Z,102005.26
2024-01-30T01:42:07.883Z,102010.20
2024-01-30T01:44:36.259Z,102013.04
2024-01-30T01:47:04.808Z,102009.54
2024-01-30T01:49:33.749Z,102010.02
2024-01-30T01:52:02.294Z,102005.45
2024-01-30T01:54:31.233Z,101998.84
2024-01-30T01:57:00.674Z,101987.05
2024-01-30T01:59:29.306Z,101986.20
2024-01-30T02:01:58.483Z,101986.54
2024-01-30T02:04:27.513Z,101988.37
2024-01-30T02:06:56.168Z,101981.66
2024-01-30T02:09:24.534Z,101982.04
2024-01-30T02:11:53.057Z,101978.90
2024-01-30T02:14:22.364Z,101981.45
2024-01-30T02:16:50.986Z,101983.16
2024-01-30T02:19:19.487Z,101973.55
2024-01-30T02:21:48.145Z,101971.80
2024-01-30T02:24:16.526Z,101969.87
2024-01-30T02:26:45.314Z,101965.73
2024-01-30T02:29:13.532Z,101969.63
2024-01-30T02:31:42.437Z,101967.73
2024-01-30T02:34:11.314Z,101968.23
2024-01-30T02:36:39.677Z,101964.80
2024-01-30T02:39:08.137Z,101962.73
2024-01-30T02:41:37.021Z,101961.20
2024-01-30T02:44:05.464Z,101968.05
2024-01-30T02:46:33.882Z,101966.33
2024-01-30T02:49:03.219Z,101967.37
2024-01-30T02:51:32.510Z,101970.66
2024-01-30T02:54:00.980Z,101970.16
2024-01-30T02:56:29.351Z,101971.70
2024-01-30T02:58:57.858Z,101971.55
2024-01-30T03:01:26.331Z,101971.55
2024-01-30T03:03:54.789Z,101970.09
2024-01-30T03:06:24.193Z,101974.13
2024-01-30T03:08:52.579Z,101973.69
2024-01-30T03:11:21.083Z,101973.09
2024-01-30T03:13:49.345Z,101965.92
2024-01-30T03:16:17.765Z,101961.62
2024-01-30T03:18:46.234Z,101966.81
2024-01-30T03:21:14.606Z,101970.47
2024-01-30T03:23:42.996Z,101973.05
2024-01-30T03:26:13.815Z,101970.83
2024-01-30T03:28:42.372Z,101970.98
2024-01-30T03:31:10.668Z,101972.48
2024-01-30T03:33:39.422Z,101970.23
2024-01-30T03:36:09.099Z,101966.90
2024-01-30T03:38:37.443Z,101962.81
2024-01-30T03:41:09.057Z,101960.98
2024-01-30T03:43:37.875Z,101955.48
2024-01-30T03:46:06.533Z,101957.66
2024-01-30T03:48:34.964Z,101960.44
2024-01-30T03:51:03.706Z,101958.60
2024-01-30T03:53:32.479Z,101956.63
2024-01-30T03:56:00.838Z,101959.61
2024-01-30T03:58:29.404Z,101957.26
2024-01-30T04:00:58.142Z,101952.98
2024-01-30T04:03:26.749Z,101958.44
2024-01-30T04:05:55.486Z,101959.23
2024-01-30T04:08:23.956Z,101961.96
2024-01-30T04:10:52.366Z,101966.84
2024-01-30T04:13:20.808Z,101964.48
2024-01-30T04:15:49.322Z,101961.23
2024-01-30T04:18:17.964Z,101961.58
2024-01-30T04:20:46.432Z,101963.13
2024-01-30T04:23:15.132Z,101961.39
2024-01-30T04:25:43.616Z,101963.60
2024-01-30T04:28:13.371Z,101967.04
2024-01-30T04:30:41.813Z,101964.88
2024-01-30T04:33:11.836Z,101962.86
2024-01-30T04:35:40.399Z,101963.73
2024-01-30T04:38:08.805Z,101962.02
2024-01-30T04:40:37.060Z,101964.79
2024-01-30T04:43:05.650Z,101967.04
2024-01-30T04:45:34.178Z,101960.66
2024-01-30T04:48:02.515Z,101952.71
2024-01-30T04:50:31.073Z,101950.69
2024-01-30T04:52:59.630Z,101952.85
2024-01-30T04:55:27.905Z,101947.95
2024-01-30T04:57:56.278Z,101951.61
2024-01-30T05:00:25.221Z,101948.91
2024-01-30T05:02:53.578Z,101948.61
2024-01-30T05:05:22.931Z,101947.74
2024-01-30T05:07:51.665Z,101946.69
2024-01-30T05:10:20.140Z,101948.55
2024-01-30T05:12:48.501Z,101946.17
2024-01-30T05:15:16.827Z,101947.23
2024-01-30T05:17:45.288Z,101954.70
2024-01-30T05:20:14.259Z,101957.30
2024-01-30T05:22:46.640Z,101956.73
2024-01-30T05:25:15.017Z,101954.29
2024-01-30T05:27:43.721Z,101950.11
2024-01-30T05:30:12.671Z,101946.09
2024-01-30T05:32:41.162Z,101947.34
2024-01-30T05:35:10.046Z,101947.08
2024-01-30T05:37:38.510Z,101947.61
2024-01-30T05:40:07.440Z,101952.66
2024-01-30T05:42:35.897Z,101954.39
2024-01-30T05:45:06.630Z,101948.13
2024-01-30T05:47:38.321Z,101944.12
2024-01-30T05:50:07.756Z,101945.97
2024-01-30T05:52:36.348Z,101946.92
2024-01-30T05:55:06.007Z,101949.46
2024-01-30T05:57:34.422Z,101962.98
2024-01-30T06:00:03.352Z,101973.23
2024-01-30T06:02:33.199Z,101972.00
2024-01-30T06:05:01.789Z,101972.16
2024-01-30T06:07:33.488Z,101962.98
2024-01-30T06:10:05.365Z,101962.19
2024-01-30T06:12:33.750Z,101957.23
2024-01-30T06:15:03.101Z,101951.39
2024-01-30T06:17:31.668Z,101956.91
2024-01-30T06:20:00.647Z,101953.11
2024-01-30T06:22:29.236Z,101953.58
2024-01-30T06:24:57.711Z,101956.91
2024-01-30T06:27:26.023Z,101958.06
2024-01-30T06:29:54.278Z,101956.29
2024-01-30T06:32:22.932Z,101958.61
2024-01-30T06:34:51.264Z,101953.42
2024-01-30T06:37:19.810Z,101950.33
2024-01-30T06:39:48.174Z,101949.29
2024-01-30T06:42:17.339Z,101950.66
2024-01-30T06:44:45.680Z,101951.67
2024-01-30T06:47:14.550Z,101951.10
2024-01-30T06:49:44.964Z,101952.48
2024-01-30T06:52:13.969Z,101950.27
2024-01-30T06:54:42.598Z,101948.89
2024-01-30T06:57:13.206Z,101943.37
2024-01-30T06:59:44.722Z,101947.14
2024-01-30T07:02:13.426Z,101948.57
2024-01-30T07:04:46.522Z,101944.57
2024-01-30T07:07:16.973Z,101946.84
2024-01-30T07:09:45.889Z,101946.19
2024-01-30T07:12:14.319Z,101940.00
2024-01-30T07:14:42.862Z,101943.69
2024-01-30T07:17:11.417Z,101940.65
2024-01-30T07:19:39.720Z,101937.42
2024-01-30T07:22:09.333Z,101939.05
2024-01-30T07:24:37.642Z,101935.18
2024-01-30T07:27:05.991Z,101940.45
2024-01-30T07:29:34.702Z,101934.42
2024-01-30T07:32:03.262Z,101943.65
2024-01-30T07:34:32.443Z,101941.71
2024-01-30T07:37:03.422Z,101935.60
2024-01-30T07:39:32.016Z,101936.04
2024-01-30T07:42:00.536Z,101937.48
2024-01-30T07:44:29.190Z,101934.79
2024-01-30T07:46:58.366Z,101930.92
2024-01-30T07:49:26.722Z,101932.09
2024-01-30T07:51:55.253Z,101935.52
2024-01-30T07:54:24.622Z,101938.06
2024-01-30T07:56:53.024Z,101942.11
2024-01-30T07:59:23.484Z,101942.77
2024-01-30T08:01:51.950Z,101944.20
2024-01-30T08:04:20.452Z,101944.32
2024-01-30T08:06:49.143Z,101945.62
2024-01-30T08:09:17.526Z,101946.77
2024-01-30T08:11:46.015Z,101949.48
2024-01-30T08:14:15.129Z,101949.61
2024-01-30T08:16:43.507Z,101942.58
2024-01-30T08:19:12.047Z,101941.04
2024-01-30T08:21:40.431Z,101941.18
2024-01-30T08:24:09.071Z,101942.90
2024-01-30T08:26:38.232Z,101944.56
2024-01-30T08:29:06.999Z,101941.30
2024-01-30T08:31:35.526Z,101940.44
2024-01-30T08:34:03.962Z,101936.73
2024-01-30T08:36:32.301Z,101942.16
2024-01-30T08:39:02.923Z,101943.25
2024-01-30T08:41:33.445Z,101945.06
2024-01-30T08:44:01.931Z,101944.48
2024-01-30T08:46:30.379Z,101948.36
2024-01-30T08:48:58.805Z,101951.52
2024-01-30T08:51:27.371Z,101956.09
2024-01-30T08:53:55.632Z,101958.74
2024-01-30T08:56:23.937Z,101958.13
2024-01-30T08:58:52.498Z,101965.43
2024-01-30T09:01:21.210Z,101965.67
2024-01-30T09:03:49.588Z,101966.58
2024-01-30T09:06:18.203Z,101960.74
2024-01-30T09:08:46.598Z,101963.18
2024-01-30T09:11:16.372Z,101960.65
2024-01-30T09:13:44.970Z,101959.33
2024-01-30T09:16:13.538Z,101956.86
2024-01-30T09:18:42.055Z,101953.41
2024-01-30T09:21:11.331Z,101955.16
2024-01-30T09:23:39.532Z,101955.30
2024-01-30T09:26:07.957Z,101954.41
2024-01-30T09:28:36.744Z,101951.63
2024-01-30T09:31:05.505Z,101945.42
2024-01-30T09:33:34.468Z,101947.55
2024-01-30T09:36:02.815Z,101945.02
2024-01-30T09:38:31.043Z,101939.29
2024-01-30T09:41:01.792Z,101947.10
2024-01-30T09:43:35.850Z,101943.77
2024-01-30T09:46:05.648Z,101945.10
2024-01-30T09:48:35.354Z,101949.41
2024-01-30T09:51:04.589Z,101949.90
2024-01-30T09:53:33.292Z,101948.08
2024-01-30T09:56:03.922Z,101942.23
2024-01-30T09:58:32.236Z,101942.81
2024-01-30T10:01:00.879Z,101942.02
2024-01-30T10:03:29.282Z,101932.55
2024-01-30T10:05:58.269Z,101928.52
2024-01-30T10:08:27.859Z,101927.02
2024-01-30T10:10:56.117Z,101927.06
2024-01-30T10:13:24.416Z,101926.91
2024-01-30T10:15:54.258Z,101923.78
2024-01-30T10:18:24.441Z,101919.23
2024-01-30T10:20:53.270Z,101917.19
2024-01-30T10:23:21.600Z,101912.63
2024-01-30T10:25:50.002Z,101918.20
2024-01-30T10:28:18.424Z,101911.03
2024-01-30T10:30:47.081Z,101911.70
2024-01-30T10:33:15.494Z,101907.30
2024-01-30T10:35:44.474Z,101906.64
2024-01-30T10:38:16.621Z,101900.48
2024-01-30T10:40:46.476Z,101900.48
2024-01-30T10:43:18.272Z,101898.77
2024-01-30T10:45:50.808Z,101896.56
2024-01-30T10:48:23.869Z,101898.30
2024-01-30T10:51:00.986Z,101894.15
2024-01-30T10:53:32.558Z,101891.25
2024-01-30T10:56:02.525Z,101888.93
2024-01-30T10:58:31.053Z,101887.33
2024-01-30T11:01:00.396Z,101886.16
2024-01-30T11:03:29.260Z,101887.89
2024-01-30T11:06:01.236Z,101885.25
2024-01-30T11:08:30.038Z,101884.34
2024-01-30T11:10:59.899Z,101883.26
2024-01-30T11:13:30.853Z,101877.54
2024-01-30T11:16:04.042Z,101876.30
2024-01-30T11:18:34.387Z,101874.00
2024-01-30T11:21:05.583Z,101872.19
2024-01-30T11:23:35.855Z,101868.99
2024-01-30T11:26:05.326Z,101861.85
2024-01-30T11:28:37.762Z,101863.33
2024-01-30T11:31:08.360Z,101851.86
2024-01-30T11:33:37.019Z,101848.70
2024-01-30T11:36:08.199Z,101846.77
2024-01-30T11:38:37.053Z,101843.66
2024-01-30T11:41:06.090Z,101845.73
2024-01-30T11:43:36.334Z,101837.13
2024-01-30T11:46:10.569Z,101832.10
2024-01-30T11:48:38.968Z,101829.35
2024-01-30T11:51:07.582Z,101831.35
2024-01-30T11:53:36.031Z,101828.91
2024-01-30T11:56:07.571Z,101826.07
2024-01-30T11:58:35.963Z,101822.25
2024-01-30T12:01:04.715Z,101819.45
2024-01-30T12:03:33.583Z,101817.89
2024-01-30T12:06:04.534Z,101814.53
2024-01-30T12:08:32.853Z,101812.71
2024-01-30T12:11:06.628Z,101811.40
2024-01-30T12:13:35.934Z,101811.10
2024-01-30T12:16:05.020Z,101814.41
2024-01-30T12:18:33.266Z,101812.30
2024-01-30T12:21:04.290Z,101812.25
2024-01-30T12:23:33.770Z,101811.84
2024-01-30T12:26:04.655Z,101811.20
2024-01-30T12:28:32.984Z,101813.82
2024-01-30T12:31:05.647Z,101815.91
2024-01-30T12:33:34.315Z,101816.43
2024-01-30T12:36:04.428Z,101816.79
2024-01-30T12:38:33.227Z,101810.56
2024-01-30T12:41:01.844Z,101808.85
2024-01-30T12:43:37.679Z,101807.14
2024-01-30T12:46:07.833Z,101808.20
2024-01-30T12:51:21.930Z,101811.89
2024-01-30T12:53:50.274Z,101809.84
2024-01-30T12:56:18.604Z,101808.50
2024-01-30T12:58:50.994Z,101810.08
2024-01-30T13:01:20.433Z,101805.95
2024-01-30T13:03:49.321Z,101801.96
2024-01-30T13:06:17.701Z,101803.34
2024-01-30T13:08:46.280Z,101805.42
2024-01-30T13:11:20.940Z,101802.99
2024-01-30T13:13:50.636Z,101799.54
2024-01-30T13:16:19.213Z,101797.11
2024-01-30T13:18:47.709Z,101794.16
2024-01-30T13:21:16.096Z,101795.73
2024-01-30T13:23:44.658Z,101795.91
2024-01-30T13:26:13.260Z,101798.50
2024-01-30T13:28:41.534Z,101794.36
2024-01-30T13:31:09.922Z,101789.50
2024-01-30T13:33:38.308Z,101787.95
2024-01-30T13:36:07.962Z,101786.22
2024-01-30T13:38:36.441Z,101786.05
2024-01-30T13:41:05.353Z,101782.23
2024-01-30T13:43:33.700Z,101779.98
2024-01-30T13:46:02.625Z,101778.58
2024-01-30T13:48:32.304Z,101776.85
2024-01-30T13:51:00.780Z,101773.21
2024-01-30T13:53:30.288Z,101772.50
2024-01-30T13:55:58.639Z,101775.08
2024-01-30T13:58:27.113Z,101774.04
2024-01-30T14:00:56.367Z,101773.50
2024-01-30T14:03:24.912Z,101776.08
2024-01-30T14:05:53.497Z,101774.67
2024-01-30T14:08:25.195Z,101770.52
2024-01-30T14:10:53.649Z,101774.84
2024-01-30T14:13:22.413Z,101770.33
2024-01-30T14:15:50.989Z,101770.50
2024-01-30T14:18:21.698Z,101768.05
2024-01-30T14:20:50.572Z,101768.39
2024-01-30T14:23:19.515Z,101768.71
2024-01-30T14:25:47.938Z,101769.04
2024-01-30T14:28:16.709Z,101766.79
2024-01-30T14:30:45.289Z,101767.45
2024-01-30T14:33:13.930Z,101767.77
2024-01-30T14:35:42.670Z,101767.06
2024-01-30T14:38:10.985Z,101764.82
2024-01-30T14:40:40.640Z,101763.41
2024-01-30T14:43:10.477Z,101764.27
2024-01-30T14:45:40.108Z,101766.66
2024-01-30T14:48:08.819Z,101765.09
2024-01-30T14:50:37.345Z,101758.70
2024-01-30T14:53:05.804Z,101761.09
2024-01-30T14:55:34.119Z,101759.86
2024-01-30T14:58:03.752Z,101761.73
2024-01-30T15:00:32.275Z,101764.47
2024-01-30T15:03:00.526Z,101764.77
2024-01-30T15:05:29.604Z,101762.67
2024-01-30T15:07:58.162Z,101757.98
2024-01-30T15:10:26.859Z,101758.98
2024-01-30T15:12:55.345Z,101757.56
2024-01-30T15:15:25.154Z,101755.27
2024-01-30T15:17:55.370Z,101759.55
2024-01-30T15:20:23.928Z,101759.16
2024-01-30T15:22:52.327Z,101757.90
2024-01-30T15:25:20.741Z,101751.98
2024-01-30T15:27:49.446Z,101748.99
2024-01-30T15:30:17.980Z,101751.72
2024-01-30T15:32:46.315Z,101750.46
2024-01-30T15:35:14.851Z,101748.69
2024-01-30T15:37:43.329Z,101745.20
2024-01-30T15:40:12.813Z,101744.32
2024-01-30T15:42:41.081Z,101743.10
2024-01-30T15:45:09.775Z,101746.01
2024-01-30T15:47:38.260Z,101747.52
2024-01-30T15:50:07.445Z,101746.77
2024-01-30T15:52:36.269Z,101746.03
2024-01-30T15:55:05.146Z,101747.70
2024-01-30T15:57:33.575Z,101743.70
2024-01-30T16:00:02.293Z,101738.29
2024-01-30T16:02:40.377Z,101740.46
2024-01-30T16:05:12.402Z,101743.51
2024-01-30T16:07:40.867Z,101753.99
2024-01-30T16:10:09.871Z,101753.94
2024-01-30T16:12:38.316Z,101748.37
2024-01-30T16:15:07.007Z,101750.70
2024-01-30T16:17:37.245Z,101746.86
2024-01-30T16:20:07.334Z,101748.52
2024-01-30T16:22:36.609Z,101749.70
2024-01-30T16:25:05.745Z,101764.48
2024-01-30T16:27:39.266Z,101758.40
2024-01-30T16:30:10.553Z,101763.20
2024-01-30T16:32:39.010Z,101756.98
2024-01-30T16:35:07.680Z,101752.26
2024-01-30T16:37:36.085Z,101745.33
2024-01-30T16:40:05.649Z,101739.10
2024-01-30T16:42:34.136Z,101739.91
2024-01-30T16:45:02.499Z,101737.48
2024-01-30T16:47:31.183Z,101737.24
2024-01-30T16:49:59.953Z,101729.45
2024-01-30T16:52:28.590Z,101718.91
2024-01-30T16:54:57.051Z,101721.83
2024-01-30T16:57:25.329Z,101723.73
2024-01-30T16:59:53.805Z,101722.48
2024-01-30T17:02:22.162Z,101725.70
2024-01-30T17:04:50.621Z,101718.10
2024-01-30T17:07:19.636Z,101718.10
2024-01-30T17:09:48.837Z,101720.14
2024-01-30T17:12:17.733Z,101719.95
2024-01-30T17:14:48.046Z,101717.83
2024-01-30T17:17:16.660Z,101715.90
2024-01-30T17:19:45.145Z,101711.91
2024-01-30T17:22:13.845Z,101718.45
2024-01-30T17:24:49.694Z,101714.44
2024-01-30T17:27:19.404Z,101719.06
2024-01-30T17:29:48.561Z,101715.05
2024-01-30T17:32:17.019Z,101712.75
2024-01-30T17:34:45.480Z,101706.70
2024-01-30T17:37:14.101Z,101703.77
2024-01-30T17:39:42.999Z,101700.50
2024-01-30T17:42:11.484Z,101694.80
2024-01-30T17:44:41.804Z,101688.44
2024-01-30T17:47:10.875Z,101679.11
2024-01-30T17:49:40.165Z,101680.84
2024-01-30T17:52:09.772Z,101678.94
2024-01-30T17:54:38.356Z,101684.42
2024-01-30T17:57:07.096Z,101686.14
2024-01-30T17:59:37.265Z,101686.16
2024-01-30T18:02:05.925Z,101676.36
2024-01-30T18:04:34.638Z,101683.77
2024-01-30T18:07:03.399Z,101683.62
2024-01-30T18:09:32.052Z,101680.71
2024-01-30T18:12:01.061Z,101683.67
2024-01-30T18:14:29.398Z,101680.09
2024-01-30T18:16:57.784Z,101680.11
2024-01-30T18:19:28.460Z,101685.99
2024-01-30T18:21:57.015Z,101677.43
2024-01-30T18:24:26.987Z,101676.92
2024-01-30T18:26:56.256Z,101670.55
2024-01-30T18:29:25.005Z,101667.30
2024-01-30T18:31:53.384Z,101668.36
2024-01-30T18:34:21.828Z,101671.31
2024-01-30T18:36:50.486Z,101674.45
2024-01-30T18:39:18.922Z,101672.75
2024-01-30T18:41:47.404Z,101667.61
2024-01-30T18:44:15.917Z,101661.62
2024-01-30T18:46:44.596Z,101662.82
2024-01-30T18:49:18.689Z,101658.34
2024-01-30T18:51:50.632Z,101652.80
2024-01-30T18:54:21.167Z,101648.14
2024-01-30T18:56:50.852Z,101647.77
2024-01-30T18:59:19.452Z,101644.14
2024-01-30T19:01:49.192Z,101641.01
2024-01-30T19:04:17.720Z,101628.60
2024-01-30T19:06:53.323Z,101624.64
2024-01-30T19:09:26.962Z,101625.35
2024-01-30T19:11:55.528Z,101631.93
2024-01-30T19:14:24.112Z,101633.71
2024-01-30T19:16:53.048Z,101632.02
2024-01-30T19:19:21.970Z,101640.00
2024-01-30T19:21:50.466Z,101642.79
2024-01-30T19:24:18.888Z,101639.73
2024-01-30T19:26:49.494Z,101639.08
2024-01-30T19:29:17.895Z,101634.30
2024-01-30T19:31:47.083Z,101635.55
2024-01-30T19:34:15.924Z,101639.04
2024-01-30T19:36:44.275Z,101636.98
2024-01-30T19:39:14.559Z,101636.67
2024-01-30T19:41:45.160Z,101638.79
2024-01-30T19:44:13.675Z,101639.52
2024-01-30T19:46:42.046Z,101638.38
2024-01-30T19:49:11.325Z,101638.42
2024-01-30T19:51:39.967Z,101640.38
2024-01-30T19:54:12.116Z,101641.27
2024-01-30T19:56:41.048Z,101640.45
2024-01-30T19:59:09.845Z,101634.63
2024-01-30T20:01:38.246Z,101633.64
2024-01-30T20:04:07.723Z,101626.92
2024-01-30T20:06:36.166Z,101625.58
2024-01-30T20:09:04.624Z,101628.38
2024-01-30T20:11:33.120Z,101625.30
2024-01-30T20:14:01.583Z,101616.86
2024-01-30T20:16:38.530Z,101615.70
2024-01-30T20:19:11.191Z,101614.52
2024-01-30T20:21:40.237Z,101613.86
2024-01-30T20:24:10.009Z,101615.96
2024-01-30T20:26:39.625Z,101616.52
2024-01-30T20:29:08.419Z,101616.89
2024-01-30T20:31:37.549Z,101612.44
2024-01-30T20:34:06.150Z,101608.13
2024-01-30T20:36:34.690Z,101603.50
2024-01-30T20:39:04.572Z,101611.09
2024-01-30T20:41:40.206Z,101609.56
2024-01-30T20:44:09.031Z,101605.61
2024-01-30T20:46:37.956Z,101598.19
2024-01-30T20:49:06.553Z,101602.50
2024-01-30T20:51:35.091Z,101601.83
2024-01-30T20:54:03.957Z,101602.02
2024-01-30T20:56:32.288Z,101589.93
2024-01-30T20:59:01.123Z,101585.09
2024-01-30T21:01:29.625Z,101591.64
2024-01-30T21:03:58.113Z,101594.42
2024-01-30T21:06:26.935Z,101586.66
2024-01-30T21:08:55.311Z,101581.30
2024-01-30T21:11:23.573Z,101579.07
2024-01-30T21:13:52.446Z,101574.58
2024-01-30T21:16:21.012Z,101580.95
2024-01-30T21:18:49.584Z,101586.48
2024-01-30T21:21:18.803Z,101580.79
2024-01-30T21:23:47.336Z,101574.91
2024-01-30T21:26:16.382Z,101569.05
2024-01-30T21:28:44.960Z,101573.88
2024-01-30T21:31:15.411Z,101572.67
2024-01-30T21:33:44.630Z,101569.74
2024-01-30T21:36:13.135Z,101565.78
2024-01-30T21:38:41.534Z,101564.92
2024-01-30T21:41:10.572Z,101568.05
2024-01-30T21:43:39.134Z,101565.44
2024-01-30T21:46:08.373Z,101571.66
2024-01-30T21:48:37.155Z,101570.11
2024-01-30T21:51:06.035Z,101563.05
2024-01-30T21:53:34.259Z,101567.35
2024-01-30T21:56:02.874Z,101562.69
2024-01-30T21:58:32.331Z,101562.34
2024-01-30T22:01:01.016Z,101559.92
2024-01-30T22:03:29.772Z,101558.71
2024-01-30T22:05:58.293Z,101553.36
2024-01-30T22:08:27.017Z,101552.16
2024-01-30T22:10:55.590Z,101552.51
2024-01-30T22:13:25.696Z,101556.14
2024-01-30T22:15:54.310Z,101561.50
2024-01-30T22:18:22.693Z,101558.06
2024-01-30T22:20:51.200Z,101552.02
2024-01-30T22:23:19.716Z,101545.80
2024-01-30T22:25:48.403Z,101540.77
2024-01-30T22:28:16.760Z,101538.89
2024-01-30T22:30:45.101Z,101540.27
2024-01-30T22:33:13.654Z,101538.37
2024-01-30T22:35:42.158Z,101537.14
2024-01-30T22:38:11.226Z,101536.64
2024-01-30T22:40:40.000Z,101541.64
2024-01-30T22:43:08.888Z,101540.60
2024-01-30T22:45:37.352Z,101543.19
2024-01-30T22:48:06.374Z,101546.64
2024-01-30T22:50:34.765Z,101544.40
2024-01-30T22:53:03.115Z,101547.85
2024-01-30T22:55:31.710Z,101548.89
2024-01-30T22:58:00.472Z,101545.78
2024-01-30T23:00:30.008Z,101542.33
2024-01-30T23:02:58.760Z,101540.40
2024-01-30T23:05:27.652Z,101533.48
2024-01-30T23:07:55.956Z,101532.95
2024-01-30T23:10:24.202Z,101535.71
2024-01-30T23:12:53.364Z,101546.23
2024-01-30T23:15:21.829Z,101540.02
2024-01-30T23:17:50.376Z,101540.71
2024-01-30T23:20:18.839Z,101539.88
2024-01-30T23:22:48.250Z,101534.87
2024-01-30T23:25:16.854Z,101534.17
2024-01-30T23:27:45.194Z,101535.55
2024-01-30T23:30:14.276Z,101533.30
2024-01-30T23:32:43.852Z,101535.52
2024-01-30T23:35:12.734Z,101538.45
2024-01-30T23:37:41.246Z,101545.51
2024-01-30T23:40:13.187Z,101551.67
2024-01-30T23:42:41.647Z,101553.19
2024-01-30T23:45:11.742Z,101557.46
2024-01-30T23:47:40.451Z,101555.18
2024-01-30T23:50:09.527Z,101550.66
2024-01-30T23:52:47.092Z,101547.02
2024-01-30T23:55:15.862Z,101544.95
2024-01-30T23:57:44.384Z,101544.92
